Terminal Aerodrome Forecast
Issued by NWS Binghamton, NY

Home | Current Version | Previous Version | Text Only | Print | Product List | Glossary On
Versions: 1 2 3 4 5 6 7 8 9 10 11 12 13 14 15 16 17 18 19 20 21 22 23
913
FTUS41 KBGM 032325
TAFSYR
TAF
KSYR 032325Z 0400/0424 29010KT P6SM -SN OVC035
      TEMPO 0402/0406 OVC025
     FM040600 31006KT P6SM OVC025
     FM041500 31004KT P6SM OVC035
     FM042100 VRB04KT P6SM BKN120=

USA.gov is the U.S. government's official web portal to all federal, state and local government web resources and services.